sensor_id;sensor_type;location;lat;lon;timestamp;temperature;humidity
484;DHT22;228;48.922;12.198;2023-08-20T04:00:45;23.80;93.80
484;DHT22;228;48.922;12.198;2023-08-20T04:03:11;23.80;93.50
484;DHT22;228;48.922;12.198;2023-08-20T04:05:38;23.90;93.30
484;DHT22;228;48.922;12.198;2023-08-20T04:08:05;23.90;93.50
484;DHT22;228;48.922;12.198;2023-08-20T04:10:32;23.80;93.90
484;DHT22;228;48.922;12.198;2023-08-20T04:12:58;23.80;94.20
484;DHT22;228;48.922;12.198;2023-08-20T04:15:24;23.80;92.90
484;DHT22;228;48.922;12.198;2023-08-20T04:17:50;23.80;93.10
484;DHT22;228;48.922;12.198;2023-08-20T04:20:16;23.70;93.00
484;DHT22;228;48.922;12.198;2023-08-20T04:22:42;23.60;93.20
484;DHT22;228;48.922;12.198;2023-08-20T04:25:08;23.40;93.50
484;DHT22;228;48.922;12.198;2023-08-20T04:27:34;23.40;93.50
484;DHT22;228;48.922;12.198;2023-08-20T04:30:00;23.30;93.70
484;DHT22;228;48.922;12.198;2023-08-20T04:32:27;23.20;93.90
484;DHT22;228;48.922;12.198;2023-08-20T04:34:53;23.20;93.20
484;DHT22;228;48.922;12.198;2023-08-20T04:37:21;23.20;92.90
484;DHT22;228;48.922;12.198;2023-08-20T04:39:47;23.10;92.60
484;DHT22;228;48.922;12.198;2023-08-20T04:42:14;23.00;92.70
484;DHT22;228;48.922;12.198;2023-08-20T04:44:40;23.00;92.90
484;DHT22;228;48.922;12.198;2023-08-20T04:47:11;23.00;92.90
484;DHT22;228;48.922;12.198;2023-08-20T04:49:37;23.00;93.00
484;DHT22;228;48.922;12.198;2023-08-20T04:52:03;23.00;92.90
484;DHT22;228;48.922;12.198;2023-08-20T04:54:30;22.90;93.00
484;DHT22;228;48.922;12.198;2023-08-20T04:56:56;23.00;93.20
484;DHT22;228;48.922;12.198;2023-08-20T04:59:23;23.00;93.20
484;DHT22;228;48.922;12.198;2023-08-20T05:02:01;23.10;93.40
484;DHT22;228;48.922;12.198;2023-08-20T05:04:38;23.10;93.30
484;DHT22;228;48.922;12.198;2023-08-20T05:07:04;23.30;93.30
484;DHT22;228;48.922;12.198;2023-08-20T05:09:30;23.20;93.80
484;DHT22;228;48.922;12.198;2023-08-20T05:11:56;23.30;93.30
484;DHT22;228;48.922;12.198;2023-08-20T05:14:22;23.30;92.90
484;DHT22;228;48.922;12.198;2023-08-20T05:16:48;23.40;92.70
484;DHT22;228;48.922;12.198;2023-08-20T05:19:14;23.40;92.70
484;DHT22;228;48.922;12.198;2023-08-20T05:21:40;23.50;92.80
484;DHT22;228;48.922;12.198;2023-08-20T05:24:06;23.70;92.50
484;DHT22;228;48.922;12.198;2023-08-20T05:26:34;23.90;92.20
484;DHT22;228;48.922;12.198;2023-08-20T05:29:00;24.00;92.00
484;DHT22;228;48.922;12.198;2023-08-20T05:31:27;24.00;91.90
484;DHT22;228;48.922;12.198;2023-08-20T05:33:53;24.10;92.00
484;DHT22;228;48.922;12.198;2023-08-20T05:36:19;24.30;91.90
484;DHT22;228;48.922;12.198;2023-08-20T05:38:47;24.60;91.40
484;DHT22;228;48.922;12.198;2023-08-20T05:41:13;24.70;91.30
484;DHT22;228;48.922;12.198;2023-08-20T05:43:38;24.60;91.00
484;DHT22;228;48.922;12.198;2023-08-20T05:46:05;24.40;93.00
484;DHT22;228;48.922;12.198;2023-08-20T05:48:31;24.00;87.50
484;DHT22;228;48.922;12.198;2023-08-20T05:50:57;24.00;88.10
484;DHT22;228;48.922;12.198;2023-08-20T05:53:23;24.00;88.40
484;DHT22;228;48.922;12.198;2023-08-20T05:55:50;24.50;87.00
484;DHT22;228;48.922;12.198;2023-08-20T05:58:16;24.80;86.30
484;DHT22;228;48.922;12.198;2023-08-20T06:00:42;24.50;86.20
484;DHT22;228;48.922;12.198;2023-08-20T06:03:08;24.60;86.40
484;DHT22;228;48.922;12.198;2023-08-20T06:05:34;24.80;87.30
484;DHT22;228;48.922;12.198;2023-08-20T06:08:00;25.00;86.30
484;DHT22;228;48.922;12.198;2023-08-20T06:10:26;25.40;85.30
484;DHT22;228;48.922;12.198;2023-08-20T06:12:53;25.50;84.40
484;DHT22;228;48.922;12.198;2023-08-20T06:15:19;25.40;84.50
484;DHT22;228;48.922;12.198;2023-08-20T06:17:45;25.50;84.90
484;DHT22;228;48.922;12.198;2023-08-20T06:20:11;25.60;86.20
484;DHT22;228;48.922;12.198;2023-08-20T06:22:37;25.50;86.80
484;DHT22;228;48.922;12.198;2023-08-20T06:25:04;25.50;86.50
484;DHT22;228;48.922;12.198;2023-08-20T06:27:31;25.70;86.70
484;DHT22;228;48.922;12.198;2023-08-20T06:29:57;25.90;87.80
484;DHT22;228;48.922;12.198;2023-08-20T06:32:23;26.20;88.20
484;DHT22;228;48.922;12.198;2023-08-20T06:34:49;26.10;88.70
484;DHT22;228;48.922;12.198;2023-08-20T06:37:15;26.20;90.50
484;DHT22;228;48.922;12.198;2023-08-20T06:39:41;26.10;91.80
484;DHT22;228;48.922;12.198;2023-08-20T06:42:07;26.00;89.50
484;DHT22;228;48.922;12.198;2023-08-20T06:44:33;26.20;88.90
484;DHT22;228;48.922;12.198;2023-08-20T06:47:01;26.50;87.50
484;DHT22;228;48.922;12.198;2023-08-20T06:49:27;26.50;88.50
484;DHT22;228;48.922;12.198;2023-08-20T06:51:52;26.60;80.10
484;DHT22;228;48.922;12.198;2023-08-20T06:54:18;26.90;82.20
484;DHT22;228;48.922;12.198;2023-08-20T06:56:44;27.00;82.40
484;DHT22;228;48.922;12.198;2023-08-20T06:59:10;26.60;83.20
484;DHT22;228;48.922;12.198;2023-08-20T07:01:36;26.50;83.20
484;DHT22;228;48.922;12.198;2023-08-20T07:04:02;26.30;84.30
484;DHT22;228;48.922;12.198;2023-08-20T07:06:28;26.50;85.00
484;DHT22;228;48.922;12.198;2023-08-20T07:08:54;26.60;84.50
484;DHT22;228;48.922;12.198;2023-08-20T07:11:20;26.70;84.30
484;DHT22;228;48.922;12.198;2023-08-20T07:13:46;26.80;84.10
484;DHT22;228;48.922;12.198;2023-08-20T07:16:11;27.00;85.20
484;DHT22;228;48.922;12.198;2023-08-20T07:18:37;27.00;87.70
484;DHT22;228;48.922;12.198;2023-08-20T07:21:03;27.30;88.70
484;DHT22;228;48.922;12.198;2023-08-20T07:23:29;27.30;89.30
484;DHT22;228;48.922;12.198;2023-08-20T07:26:09;28.00;72.20
484;DHT22;228;48.922;12.198;2023-08-20T07:28:37;28.00;72.80
484;DHT22;228;48.922;12.198;2023-08-20T07:31:40;28.30;70.50
484;DHT22;228;48.922;12.198;2023-08-20T07:34:06;28.20;71.80
484;DHT22;228;48.922;12.198;2023-08-20T07:36:32;28.50;70.60
484;DHT22;228;48.922;12.198;2023-08-20T07:38:58;28.50;72.00
484;DHT22;228;48.922;12.198;2023-08-20T07:41:24;28.70;70.50
484;DHT22;228;48.922;12.198;2023-08-20T07:43:50;28.60;70.40
484;DHT22;228;48.922;12.198;2023-08-20T07:46:16;28.50;70.60
484;DHT22;228;48.922;12.198;2023-08-20T07:48:42;28.60;69.60
484;DHT22;228;48.922;12.198;2023-08-20T07:51:09;28.80;70.40
484;DHT22;228;48.922;12.198;2023-08-20T07:53:35;29.00;68.70
484;DHT22;228;48.922;12.198;2023-08-20T07:56:01;28.90;69.20
484;DHT22;228;48.922;12.198;2023-08-20T07:58:27;29.00;70.20
484;DHT22;228;48.922;12.198;2023-08-20T08:00:55;29.10;69.20
484;DHT22;228;48.922;12.198;2023-08-20T08:03:20;29.20;68.10
484;DHT22;228;48.922;12.198;2023-08-20T08:05:50;29.30;68.30
484;DHT22;228;48.922;12.198;2023-08-20T08:08:17;29.30;68.90
484;DHT22;228;48.922;12.198;2023-08-20T08:10:44;29.70;68.60
484;DHT22;228;48.922;12.198;2023-08-20T08:13:15;30.10;66.70
484;DHT22;228;48.922;12.198;2023-08-20T08:15:41;29.70;65.70
484;DHT22;228;48.922;12.198;2023-08-20T08:18:07;29.40;67.90
484;DHT22;228;48.922;12.198;2023-08-20T08:20:34;29.20;66.80
484;DHT22;228;48.922;12.198;2023-08-20T08:23:00;29.30;67.70
484;DHT22;228;48.922;12.198;2023-08-20T08:25:26;29.50;66.40
484;DHT22;228;48.922;12.198;2023-08-20T08:27:52;29.90;64.10
484;DHT22;228;48.922;12.198;2023-08-20T08:30:18;29.80;64.60
484;DHT22;228;48.922;12.198;2023-08-20T08:32:44;29.90;63.70
484;DHT22;228;48.922;12.198;2023-08-20T08:35:10;29.90;64.30
484;DHT22;228;48.922;12.198;2023-08-20T08:37:37;30.10;66.00
484;DHT22;228;48.922;12.198;2023-08-20T08:40:03;30.30;63.50
484;DHT22;228;48.922;12.198;2023-08-20T08:42:35;30.60;63.00
484;DHT22;228;48.922;12.198;2023-08-20T08:45:02;31.00;61.70
484;DHT22;228;48.922;12.198;2023-08-20T08:47:29;31.30;60.70
484;DHT22;228;48.922;12.198;2023-08-20T08:49:56;31.40;59.40
484;DHT22;228;48.922;12.198;2023-08-20T08:52:23;31.60;59.40
484;DHT22;228;48.922;12.198;2023-08-20T08:54:49;31.50;58.90
484;DHT22;228;48.922;12.198;2023-08-20T08:57:16;31.20;59.10
484;DHT22;228;48.922;12.198;2023-08-20T08:59:42;31.20;59.40
484;DHT22;228;48.922;12.198;2023-08-20T09:02:10;31.00;60.60
484;DHT22;228;48.922;12.198;2023-08-20T09:04:42;31.10;59.20
484;DHT22;228;48.922;12.198;2023-08-20T09:07:13;31.90;59.90
484;DHT22;228;48.922;12.198;2023-08-20T09:09:44;32.00;57.30
484;DHT22;228;48.922;12.198;2023-08-20T09:12:17;32.20;56.20
484;DHT22;228;48.922;12.198;2023-08-20T09:14:51;32.10;56.90
484;DHT22;228;48.922;12.198;2023-08-20T09:17:17;31.90;58.80
484;DHT22;228;48.922;12.198;2023-08-20T09:19:45;31.80;58.20
484;DHT22;228;48.922;12.198;2023-08-20T09:22:15;32.00;58.10
484;DHT22;228;48.922;12.198;2023-08-20T09:24:45;32.10;55.30
484;DHT22;228;48.922;12.198;2023-08-20T09:27:12;32.30;55.90
484;DHT22;228;48.922;12.198;2023-08-20T09:29:48;32.60;56.10
484;DHT22;228;48.922;12.198;2023-08-20T09:34:45;33.00;56.00
484;DHT22;228;48.922;12.198;2023-08-20T09:37:13;32.70;54.10
484;DHT22;228;48.922;12.198;2023-08-20T09:39:39;32.90;53.40
484;DHT22;228;48.922;12.198;2023-08-20T09:42:06;33.30;54.00
484;DHT22;228;48.922;12.198;2023-08-20T09:44:34;33.10;52.80
484;DHT22;228;48.922;12.198;2023-08-20T09:47:07;32.90;53.60
484;DHT22;228;48.922;12.198;2023-08-20T09:49:37;33.00;55.60
484;DHT22;228;48.922;12.198;2023-08-20T09:52:05;33.00;52.00
484;DHT22;228;48.922;12.198;2023-08-20T09:57:36;33.40;53.40
484;DHT22;228;48.922;12.198;2023-08-20T10:00:04;34.10;49.80
484;DHT22;228;48.922;12.198;2023-08-20T10:02:41;34.00;52.80
484;DHT22;228;48.922;12.198;2023-08-20T10:05:09;34.10;52.70
484;DHT22;228;48.922;12.198;2023-08-20T10:07:35;33.90;51.10
484;DHT22;228;48.922;12.198;2023-08-20T10:10:06;34.30;50.60
484;DHT22;228;48.922;12.198;2023-08-20T10:12:33;34.40;50.80
484;DHT22;228;48.922;12.198;2023-08-20T10:15:00;34.60;49.10
484;DHT22;228;48.922;12.198;2023-08-20T10:17:33;34.10;52.10
484;DHT22;228;48.922;12.198;2023-08-20T10:20:00;34.20;52.20
484;DHT22;228;48.922;12.198;2023-08-20T10:24:59;33.80;50.40
484;DHT22;228;48.922;12.198;2023-08-20T10:27:31;33.80;53.10
484;DHT22;228;48.922;12.198;2023-08-20T10:30:02;34.20;46.60
484;DHT22;228;48.922;12.198;2023-08-20T10:33:04;34.30;50.60
484;DHT22;228;48.922;12.198;2023-08-20T10:43:40;34.30;48.90
484;DHT22;228;48.922;12.198;2023-08-20T10:46:07;35.00;47.80
484;DHT22;228;48.922;12.198;2023-08-20T10:48:36;35.20;43.70
484;DHT22;228;48.922;12.198;2023-08-20T10:51:16;35.70;45.90
484;DHT22;228;48.922;12.198;2023-08-20T10:56:44;36.20;44.70
484;DHT22;228;48.922;12.198;2023-08-20T10:59:25;35.90;43.10
484;DHT22;228;48.922;12.198;2023-08-20T11:01:53;35.50;40.90
484;DHT22;228;48.922;12.198;2023-08-20T11:04:21;36.00;43.10
484;DHT22;228;48.922;12.198;2023-08-20T11:06:52;36.00;44.30
484;DHT22;228;48.922;12.198;2023-08-20T11:09:18;35.70;44.00
484;DHT22;228;48.922;12.198;2023-08-20T11:11:44;34.90;44.50
484;DHT22;228;48.922;12.198;2023-08-20T11:14:14;35.10;44.50
484;DHT22;228;48.922;12.198;2023-08-20T11:16:45;35.50;46.70
484;DHT22;228;48.922;12.198;2023-08-20T11:19:11;36.30;42.10
484;DHT22;228;48.922;12.198;2023-08-20T11:21:39;36.20;40.40
484;DHT22;228;48.922;12.198;2023-08-20T11:24:07;37.40;40.30
484;DHT22;228;48.922;12.198;2023-08-20T11:29:06;40.10;35.80
484;DHT22;228;48.922;12.198;2023-08-20T11:31:32;41.60;31.20
484;DHT22;228;48.922;12.198;2023-08-20T11:33:58;42.60;28.10
484;DHT22;228;48.922;12.198;2023-08-20T11:36:24;45.00;27.60
484;DHT22;228;48.922;12.198;2023-08-20T11:38:51;45.30;34.80
484;DHT22;228;48.922;12.198;2023-08-20T11:43:48;46.20;26.40
484;DHT22;228;48.922;12.198;2023-08-20T11:46:17;45.90;24.80
484;DHT22;228;48.922;12.198;2023-08-20T11:51:26;47.60;26.60
484;DHT22;228;48.922;12.198;2023-08-20T11:53:52;46.90;24.80
484;DHT22;228;48.922;12.198;2023-08-20T11:56:18;46.70;24.80
484;DHT22;228;48.922;12.198;2023-08-20T11:58:50;47.50;24.00
484;DHT22;228;48.922;12.198;2023-08-20T12:01:20;48.30;24.20
484;DHT22;228;48.922;12.198;2023-08-20T12:03:46;48.10;24.00
484;DHT22;228;48.922;12.198;2023-08-20T12:06:20;47.80;24.10
484;DHT22;228;48.922;12.198;2023-08-20T12:08:46;48.30;23.30
484;DHT22;228;48.922;12.198;2023-08-20T12:11:13;50.40;21.30
484;DHT22;228;48.922;12.198;2023-08-20T12:13:39;51.10;23.30
484;DHT22;228;48.922;12.198;2023-08-20T12:16:05;51.30;21.60
484;DHT22;228;48.922;12.198;2023-08-20T12:18:31;50.40;23.40
484;DHT22;228;48.922;12.198;2023-08-20T12:20:56;50.00;21.60
484;DHT22;228;48.922;12.198;2023-08-20T12:23:22;49.60;22.70
484;DHT22;228;48.922;12.198;2023-08-20T12:25:52;49.20;21.50
484;DHT22;228;48.922;12.198;2023-08-20T12:28:18;50.30;23.20
484;DHT22;228;48.922;12.198;2023-08-20T12:30:44;51.40;21.50
484;DHT22;228;48.922;12.198;2023-08-20T12:33:11;51.90;21.20
484;DHT22;228;48.922;12.198;2023-08-20T12:35:37;50.30;20.00
484;DHT22;228;48.922;12.198;2023-08-20T12:38:04;49.70;21.40
484;DHT22;228;48.922;12.198;2023-08-20T12:40:30;50.40;19.90
484;DHT22;228;48.922;12.198;2023-08-20T12:42:56;51.40;20.50
484;DHT22;228;48.922;12.198;2023-08-20T12:45:22;52.50;22.00
484;DHT22;228;48.922;12.198;2023-08-20T12:47:48;53.10;21.60
484;DHT22;228;48.922;12.198;2023-08-20T12:50:14;51.90;20.80
484;DHT22;228;48.922;12.198;2023-08-20T12:52:40;50.80;21.70
484;DHT22;228;48.922;12.198;2023-08-20T12:55:07;50.80;21.50
484;DHT22;228;48.922;12.198;2023-08-20T12:57:35;51.10;20.10
484;DHT22;228;48.922;12.198;2023-08-20T13:00:02;51.50;20.90
484;DHT22;228;48.922;12.198;2023-08-20T13:02:33;50.70;21.10
484;DHT22;228;48.922;12.198;2023-08-20T13:04:59;52.10;21.00
484;DHT22;228;48.922;12.198;2023-08-20T13:07:25;52.30;21.00
484;DHT22;228;48.922;12.198;2023-08-20T13:09:51;53.90;20.50
484;DHT22;228;48.922;12.198;2023-08-20T13:12:18;55.50;18.60
484;DHT22;228;48.922;12.198;2023-08-20T13:14:45;55.40;18.30
484;DHT22;228;48.922;12.198;2023-08-20T13:17:12;54.20;18.60
484;DHT22;228;48.922;12.198;2023-08-20T13:19:38;54.30;20.10
484;DHT22;228;48.922;12.198;2023-08-20T13:22:04;53.80;18.90
484;DHT22;228;48.922;12.198;2023-08-20T13:24:30;53.10;19.00
484;DHT22;228;48.922;12.198;2023-08-20T13:26:56;52.90;20.00
484;DHT22;228;48.922;12.198;2023-08-20T13:29:22;53.50;20.90
484;DHT22;228;48.922;12.198;2023-08-20T13:31:48;54.50;18.00
484;DHT22;228;48.922;12.198;2023-08-20T13:34:14;55.30;18.80
484;DHT22;228;48.922;12.198;2023-08-20T13:36:40;55.90;17.80
484;DHT22;228;48.922;12.198;2023-08-20T13:39:06;54.90;19.60
484;DHT22;228;48.922;12.198;2023-08-20T13:41:32;54.10;18.70
484;DHT22;228;48.922;12.198;2023-08-20T13:43:58;54.20;18.70
484;DHT22;228;48.922;12.198;2023-08-20T13:46:24;53.20;19.60
484;DHT22;228;48.922;12.198;2023-08-20T13:48:50;52.30;20.30
484;DHT22;228;48.922;12.198;2023-08-20T13:51:15;52.20;19.30
484;DHT22;228;48.922;12.198;2023-08-20T13:53:41;52.70;19.40
484;DHT22;228;48.922;12.198;2023-08-20T13:56:07;52.20;20.40
484;DHT22;228;48.922;12.198;2023-08-20T13:58:33;51.40;20.40
484;DHT22;228;48.922;12.198;2023-08-20T14:00:59;50.60;20.60
484;DHT22;228;48.922;12.198;2023-08-20T14:03:25;49.30;21.40
484;DHT22;228;48.922;12.198;2023-08-20T14:05:51;47.70;21.50
484;DHT22;228;48.922;12.198;2023-08-20T14:08:17;46.90;23.40
484;DHT22;228;48.922;12.198;2023-08-20T14:10:43;47.70;25.30
484;DHT22;228;48.922;12.198;2023-08-20T14:13:09;49.30;23.90
484;DHT22;228;48.922;12.198;2023-08-20T14:15:35;50.80;22.20
484;DHT22;228;48.922;12.198;2023-08-20T14:18:02;52.10;20.20
484;DHT22;228;48.922;12.198;2023-08-20T14:20:28;52.80;18.80
484;DHT22;228;48.922;12.198;2023-08-20T14:22:54;52.70;18.70
484;DHT22;228;48.922;12.198;2023-08-20T14:25:20;52.90;18.10
484;DHT22;228;48.922;12.198;2023-08-20T14:27:46;53.10;18.50
484;DHT22;228;48.922;12.198;2023-08-20T14:30:12;52.70;18.80
484;DHT22;228;48.922;12.198;2023-08-20T14:32:38;53.20;19.10
484;DHT22;228;48.922;12.198;2023-08-20T14:35:04;53.40;19.70
484;DHT22;228;48.922;12.198;2023-08-20T14:37:30;54.30;19.50
484;DHT22;228;48.922;12.198;2023-08-20T14:39:56;53.50;19.40
484;DHT22;228;48.922;12.198;2023-08-20T14:42:22;52.70;17.90
484;DHT22;228;48.922;12.198;2023-08-20T14:44:48;52.60;19.60
484;DHT22;228;48.922;12.198;2023-08-20T14:47:14;54.00;18.60
484;DHT22;228;48.922;12.198;2023-08-20T14:49:40;54.30;17.70
484;DHT22;228;48.922;12.198;2023-08-20T14:52:06;55.30;16.80
484;DHT22;228;48.922;12.198;2023-08-20T14:54:32;56.50;16.70
484;DHT22;228;48.922;12.198;2023-08-20T14:56:58;56.00;16.60
484;DHT22;228;48.922;12.198;2023-08-20T14:59:24;54.60;16.70
484;DHT22;228;48.922;12.198;2023-08-20T15:01:51;53.60;17.10
484;DHT22;228;48.922;12.198;2023-08-20T15:04:17;52.90;17.70
484;DHT22;228;48.922;12.198;2023-08-20T15:06:43;53.40;20.40
484;DHT22;228;48.922;12.198;2023-08-20T15:09:09;53.70;18.80
484;DHT22;228;48.922;12.198;2023-08-20T15:11:41;53.70;19.10
484;DHT22;228;48.922;12.198;2023-08-20T15:14:08;53.00;18.60
484;DHT22;228;48.922;12.198;2023-08-20T15:16:34;53.40;18.70
484;DHT22;228;48.922;12.198;2023-08-20T15:19:00;54.00;18.50
484;DHT22;228;48.922;12.198;2023-08-20T15:21:26;54.90;19.00
484;DHT22;228;48.922;12.198;2023-08-20T15:23:52;55.30;18.10
484;DHT22;228;48.922;12.198;2023-08-20T15:26:18;56.10;17.00
484;DHT22;228;48.922;12.198;2023-08-20T15:28:44;56.80;17.40
484;DHT22;228;48.922;12.198;2023-08-20T15:31:10;57.90;18.20
484;DHT22;228;48.922;12.198;2023-08-20T15:33:36;58.90;17.30
484;DHT22;228;48.922;12.198;2023-08-20T15:36:02;59.70;15.90
484;DHT22;228;48.922;12.198;2023-08-20T15:38:28;58.70;16.60
484;DHT22;228;48.922;12.198;2023-08-20T15:40:54;56.20;16.80
484;DHT22;228;48.922;12.198;2023-08-20T15:43:20;54.90;18.00
484;DHT22;228;48.922;12.198;2023-08-20T15:45:47;54.30;18.50
484;DHT22;228;48.922;12.198;2023-08-20T15:48:13;54.80;18.80
484;DHT22;228;48.922;12.198;2023-08-20T15:50:39;55.50;17.90
484;DHT22;228;48.922;12.198;2023-08-20T15:55:31;51.70;18.60
484;DHT22;228;48.922;12.198;2023-08-20T15:57:57;50.50;20.40
484;DHT22;228;48.922;12.198;2023-08-20T16:00:23;50.50;21.10
484;DHT22;228;48.922;12.198;2023-08-20T16:02:49;49.30;22.00
484;DHT22;228;48.922;12.198;2023-08-20T16:05:15;48.20;23.50
484;DHT22;228;48.922;12.198;2023-08-20T16:07:42;46.90;23.60
484;DHT22;228;48.922;12.198;2023-08-20T16:10:09;45.40;25.30
484;DHT22;228;48.922;12.198;2023-08-20T16:12:40;44.00;25.20
484;DHT22;228;48.922;12.198;2023-08-20T16:15:06;42.80;27.50
484;DHT22;228;48.922;12.198;2023-08-20T16:17:33;42.50;27.50
484;DHT22;228;48.922;12.198;2023-08-20T16:19:59;43.50;27.10
484;DHT22;228;48.922;12.198;2023-08-20T16:22:25;45.10;24.90
484;DHT22;228;48.922;12.198;2023-08-20T16:24:51;46.00;24.90
484;DHT22;228;48.922;12.198;2023-08-20T16:27:17;46.10;24.70
484;DHT22;228;48.922;12.198;2023-08-20T16:29:43;46.40;24.50
484;DHT22;228;48.922;12.198;2023-08-20T16:32:09;47.60;24.70
484;DHT22;228;48.922;12.198;2023-08-20T16:34:35;47.60;23.40
484;DHT22;228;48.922;12.198;2023-08-20T16:37:01;47.40;23.40
484;DHT22;228;48.922;12.198;2023-08-20T16:39:28;46.40;24.60
484;DHT22;228;48.922;12.198;2023-08-20T16:41:54;45.30;26.70
484;DHT22;228;48.922;12.198;2023-08-20T16:44:21;44.70;25.70
484;DHT22;228;48.922;12.198;2023-08-20T16:46:47;43.40;27.30
484;DHT22;228;48.922;12.198;2023-08-20T16:49:13;42.50;28.90
484;DHT22;228;48.922;12.198;2023-08-20T16:51:39;41.90;33.10
484;DHT22;228;48.922;12.198;2023-08-20T16:54:05;40.50;31.10
484;DHT22;228;48.922;12.198;2023-08-20T16:56:33;39.80;32.50
484;DHT22;228;48.922;12.198;2023-08-20T16:58:59;38.90;33.20
484;DHT22;228;48.922;12.198;2023-08-20T17:01:25;38.50;33.70
484;DHT22;228;48.922;12.198;2023-08-20T17:03:51;38.20;34.30
484;DHT22;228;48.922;12.198;2023-08-20T17:06:18;37.70;35.20
484;DHT22;228;48.922;12.198;2023-08-20T17:08:45;37.60;37.60
484;DHT22;228;48.922;12.198;2023-08-20T17:11:11;35.50;42.90
484;DHT22;228;48.922;12.198;2023-08-20T17:13:38;36.00;55.00
484;DHT22;228;48.922;12.198;2023-08-20T17:16:05;35.30;50.00
484;DHT22;228;48.922;12.198;2023-08-20T17:18:31;35.30;48.20
484;DHT22;228;48.922;12.198;2023-08-20T17:20:58;34.90;48.20
484;DHT22;228;48.922;12.198;2023-08-20T17:23:25;34.80;41.30
484;DHT22;228;48.922;12.198;2023-08-20T17:25:55;34.70;41.20
484;DHT22;228;48.922;12.198;2023-08-20T17:28:22;34.50;42.30
484;DHT22;228;48.922;12.198;2023-08-20T17:30:48;34.30;47.00
484;DHT22;228;48.922;12.198;2023-08-20T17:33:16;33.70;47.40
484;DHT22;228;48.922;12.198;2023-08-20T17:35:42;33.40;49.30
484;DHT22;228;48.922;12.198;2023-08-20T17:38:10;33.40;47.00
484;DHT22;228;48.922;12.198;2023-08-20T17:40:38;33.20;47.90
484;DHT22;228;48.922;12.198;2023-08-20T17:43:04;32.90;49.10
484;DHT22;228;48.922;12.198;2023-08-20T17:45:34;32.80;50.10
484;DHT22;228;48.922;12.198;2023-08-20T17:48:01;32.50;55.20
484;DHT22;228;48.922;12.198;2023-08-20T17:50:27;32.30;47.00
484;DHT22;228;48.922;12.198;2023-08-20T17:52:53;32.10;47.10
484;DHT22;228;48.922;12.198;2023-08-20T17:55:20;31.90;47.60
484;DHT22;228;48.922;12.198;2023-08-20T17:57:46;31.80;48.20
484;DHT22;228;48.922;12.198;2023-08-20T18:00:12;31.50;48.60
484;DHT22;228;48.922;12.198;2023-08-20T18:02:38;31.50;49.10
484;DHT22;228;48.922;12.198;2023-08-20T18:05:05;31.50;48.80
484;DHT22;228;48.922;12.198;2023-08-20T18:07:34;31.40;49.40
484;DHT22;228;48.922;12.198;2023-08-20T18:10:01;31.30;48.80
484;DHT22;228;48.922;12.198;2023-08-20T18:12:27;31.20;49.10
484;DHT22;228;48.922;12.198;2023-08-20T18:14:54;30.70;49.40
484;DHT22;228;48.922;12.198;2023-08-20T18:17:20;30.60;50.30
484;DHT22;228;48.922;12.198;2023-08-20T18:19:45;30.30;51.30
484;DHT22;228;48.922;12.198;2023-08-20T18:22:11;30.10;54.40
484;DHT22;228;48.922;12.198;2023-08-20T18:24:37;30.00;55.50
484;DHT22;228;48.922;12.198;2023-08-20T18:27:04;30.10;57.50
484;DHT22;228;48.922;12.198;2023-08-20T18:29:31;30.10;52.60
484;DHT22;228;48.922;12.198;2023-08-20T18:31:57;29.90;52.40
484;DHT22;228;48.922;12.198;2023-08-20T18:34:24;29.70;54.50
484;DHT22;228;48.922;12.198;2023-08-20T18:36:51;29.60;54.10
484;DHT22;228;48.922;12.198;2023-08-20T18:39:22;29.50;53.90
484;DHT22;228;48.922;12.198;2023-08-20T18:41:48;29.50;53.90
484;DHT22;228;48.922;12.198;2023-08-20T18:44:15;29.40;54.30
484;DHT22;228;48.922;12.198;2023-08-20T18:46:41;29.40;56.80
484;DHT22;228;48.922;12.198;2023-08-20T18:49:08;29.30;56.80
484;DHT22;228;48.922;12.198;2023-08-20T18:51:35;29.20;59.20
484;DHT22;228;48.922;12.198;2023-08-20T18:54:01;29.10;57.70
484;DHT22;228;48.922;12.198;2023-08-20T18:56:29;29.20;56.90
484;DHT22;228;48.922;12.198;2023-08-20T18:58:56;29.10;57.10
484;DHT22;228;48.922;12.198;2023-08-20T19:01:23;29.10;57.30
484;DHT22;228;48.922;12.198;2023-08-20T19:03:49;29.00;57.40
484;DHT22;228;48.922;12.198;2023-08-20T19:06:16;28.90;57.90
484;DHT22;228;48.922;12.198;2023-08-20T19:08:45;28.80;61.80
484;DHT22;228;48.922;12.198;2023-08-20T19:11:11;28.50;59.90
484;DHT22;228;48.922;12.198;2023-08-20T19:13:38;28.50;62.00
484;DHT22;228;48.922;12.198;2023-08-20T19:16:04;28.50;60.80
484;DHT22;228;48.922;12.198;2023-08-20T19:18:30;28.50;58.40
484;DHT22;228;48.922;12.198;2023-08-20T19:20:56;28.40;56.70
484;DHT22;228;48.922;12.198;2023-08-20T19:23:25;28.40;57.70
484;DHT22;228;48.922;12.198;2023-08-20T19:25:53;28.30;59.80
484;DHT22;228;48.922;12.198;2023-08-20T19:28:19;28.20;61.70
484;DHT22;228;48.922;12.198;2023-08-20T19:30:51;28.10;61.80
484;DHT22;228;48.922;12.198;2023-08-20T19:33:19;28.00;64.50
484;DHT22;228;48.922;12.198;2023-08-20T19:35:46;26.60;68.10
484;DHT22;228;48.922;12.198;2023-08-20T19:38:15;27.80;63.90
484;DHT22;228;48.922;12.198;2023-08-20T19:40:45;27.60;66.60
484;DHT22;228;48.922;12.198;2023-08-20T19:43:11;27.50;67.20
484;DHT22;228;48.922;12.198;2023-08-20T19:45:37;27.40;68.50
484;DHT22;228;48.922;12.198;2023-08-20T19:48:06;27.30;73.40
484;DHT22;228;48.922;12.198;2023-08-20T19:50:33;27.10;61.80
484;DHT22;228;48.922;12.198;2023-08-20T19:52:59;27.10;62.70
484;DHT22;228;48.922;12.198;2023-08-20T19:55:25;27.00;62.80
484;DHT22;228;48.922;12.198;2023-08-20T19:57:51;26.90;62.90
484;DHT22;228;48.922;12.198;2023-08-20T20:00:17;26.90;63.30
484;DHT22;228;48.922;12.198;2023-08-20T20:02:50;26.80;63.90
484;DHT22;228;48.922;12.198;2023-08-20T20:05:20;26.80;64.00
484;DHT22;228;48.922;12.198;2023-08-20T20:07:47;26.70;63.80
484;DHT22;228;48.922;12.198;2023-08-20T20:10:13;26.60;63.70
484;DHT22;228;48.922;12.198;2023-08-20T20:12:42;26.30;65.50
484;DHT22;228;48.922;12.198;2023-08-20T20:15:09;26.20;65.20
484;DHT22;228;48.922;12.198;2023-08-20T20:17:37;26.20;65.60
484;DHT22;228;48.922;12.198;2023-08-20T20:20:06;26.10;66.10
484;DHT22;228;48.922;12.198;2023-08-20T20:22:40;26.10;66.30
484;DHT22;228;48.922;12.198;2023-08-20T20:25:07;26.10;66.30
484;DHT22;228;48.922;12.198;2023-08-20T20:27:34;26.00;66.20
484;DHT22;228;48.922;12.198;2023-08-20T20:30:04;25.80;66.80
484;DHT22;228;48.922;12.198;2023-08-20T20:32:36;25.70;67.00
484;DHT22;228;48.922;12.198;2023-08-20T20:35:03;25.70;66.60
484;DHT22;228;48.922;12.198;2023-08-20T20:37:29;25.80;66.70
484;DHT22;228;48.922;12.198;2023-08-20T20:39:55;25.90;64.90
484;DHT22;228;48.922;12.198;2023-08-20T20:42:22;25.90;64.80
484;DHT22;228;48.922;12.198;2023-08-20T20:44:49;25.80;66.30